CANAVERAL NM East of Cape Canaveral, FL (41009)

Conditions for Tuesday

Daily
Weekly
Monthly
Marine Data Graph

Marine & Boating Location Search

Enter a coastal zip code for marine weather.

General Information

Location: 28.522 North -80.188 West
Buoy Type: 3-meter discus buoy
Buoy Hull: 3D86
Payload: AMPS payload
Owned by: NDBC
Windspeed: Measured by obtained from anemometer
Sea Surface: Measured by Intake

Weather and Wave Data

Time Temp Humidity Wind Dominant Wave Wind Wave Wave Swell Pressure
  Air
(°F)
Water
(°F)
  Dir Speed
(kts)
Speed
(mph)
Period
(sec)
Height
(ft)
Range
(ft)
Period
(sec)
Height
(ft)
Range
(ft)
Period
(sec)
Height
(ft)
Range
(ft)
Atmo.
(in)
Tend.
(in)
20:20 65 70 45 East 15.6 17.9 - - - - - - 30.28 -
20:50 65 70 46 ESE 13.6 15.7 11 3.94 exactly 3.9 4 1.64 0.82 - 2.46 11 3.28 2.46 - 4.10 30.29 -0.03
21:20 65 70 48 ESE 15.6 17.9 - - - - - - 30.29 -
21:50 66 70 46 ESE 13.6 15.7 11 3.94 exactly 3.9 4 3.28 2.46 - 4.10 11 3.28 2.46 - 4.10 30.29 -0.02
22:20 66 70 47 ESE 11.7 13.4 - - - - - - 30.28 -
22:50 67 70 46 SE 13.6 15.7 9 3.94 exactly 3.9 4 1.64 0.82 - 2.46 9 3.28 2.46 - 4.10 30.27 -0.03
23:20 67 70 47 SSE 15.6 17.9 - - - - - - 30.26 -
23:50 67 70 46 South 19.4 22.4 12 3.94 exactly 3.9 4 3.28 2.46 - 4.10 12 3.28 2.46 - 4.10 30.24 -0.05
00:20 67 70 44 South 17.5 20.1 - - - - - - 30.23 -
00:50 67 70 43 SSE 17.5 20.1 12 3.94 exactly 3.9 5 3.28 2.46 - 4.10 12 3.28 2.46 - 4.10 30.24 -0.05
01:20 67 70 41 SSE 17.5 20.1 - - - - - - 30.23 -
01:50 68 70 37 South 15.6 17.9 11 3.94 exactly 3.9 5 3.28 2.46 - 4.10 11 1.64 0.82 - 2.46 30.22 -0.05
02:20 68 70 36 South 13.6 15.7 - - - - - - 30.23 -
02:50 68 70 38 South 11.7 13.4 11 4.27 exactly 4.3 4 3.28 2.46 - 4.10 11 3.28 2.46 - 4.10 30.22 -0.02
03:20 68 70 36 South 9.7 11.2 - - - - - - 30.22 -
03:50 68 70 37 South 11.7 13.4 12 3.94 exactly 3.9 5 3.28 2.46 - 4.10 12 3.28 2.46 - 4.10 30.21 -0.03
04:20 68 70 37 South 11.7 13.4 - - - - - - 30.20 -
04:50 68 70 39 South 9.7 11.2 11 3.94 exactly 3.9 4 1.64 0.82 - 2.46 11 3.28 2.46 - 4.10 30.20 -0.02
05:20 68 70 43 South 9.7 11.2 - - - - - - 30.20 -
05:50 69 70 40 South 11.7 13.4 11 3.94 exactly 3.9 5 3.28 2.46 - 4.10 11 3.28 2.46 - 4.10 30.19 -0.02
06:20 69 70 42 South 13.6 15.7 - - - - - - 30.20 -
06:50 69 70 48 South 15.6 17.9 11 4.27 exactly 4.3 5 3.28 2.46 - 4.10 11 3.28 2.46 - 4.10 30.19 -0.01
07:20 69 70 49 SSE 15.6 17.9 - - - - - - 30.20 -
07:50 69 70 51 SSE 15.6 17.9 10 4.27 exactly 4.3 5 3.28 2.46 - 4.10 10 3.28 2.46 - 4.10 30.19 -0.01
08:20 69 70 53 SSE 15.6 17.9 - - - - - - 30.19 -
08:50 69 70 57 South 19.4 22.4 11 4.59 exactly 4.6 5 3.28 2.46 - 4.10 11 3.28 2.46 - 4.10 30.19 -
09:20 68 70 62 South 15.6 17.9 - - - - - - 30.21 -
09:50 69 70 59 South 15.6 17.9 11 4.59 exactly 4.6 6 3.28 2.46 - 4.10 11 3.28 2.46 - 4.10 30.22 +0.03
10:20 69 70 63 SSW 15.6 17.9 - - - - - - 30.22 -
10:50 69 70 57 SSW 15.6 17.9 11 5.25 exactly 5.2 5 3.28 2.46 - 4.10 11 3.28 2.46 - 4.10 30.22 +0.03
11:20 69 70 61 SSW 13.6 15.7 - - - - - - 30.22 -
11:50 69 70 54 SSW 11.7 13.4 11 4.59 exactly 4.6 6 3.28 2.46 - 4.10 11 3.28 2.46 - 4.10 30.20 +0.01
12:20 69 70 52 SW 9.7 11.2 - - - - - - 30.20 -
12:50 69 70 53 SSW 9.7 11.2 10 4.59 exactly 4.6 4 1.64 0.82 - 2.46 10 3.28 2.46 - 4.10 30.18 -0.04
13:20 69 70 54 SSW 9.7 11.2 - - - - - - 30.16 -
13:50 69 70 55 South 7.8 8.9 11 4.27 exactly 4.3 4 1.64 0.82 - 2.46 11 3.28 2.46 - 4.10 30.14 -0.07
14:20 70 70 53 South 11.7 13.4 - - - - - - 30.12 -
14:50 70 70 51 South 13.6 15.7 11 4.27 exactly 4.3 6 3.28 2.46 - 4.10 11 3.28 2.46 - 4.10 30.12 -0.09
15:20 71 70 51 South 11.7 13.4 - - - - - - 30.10 -
15:50 71 71 53 South 11.7 13.4 11 4.27 exactly 4.3 6 3.28 2.46 - 4.10 11 3.28 2.46 - 4.10 30.10 -0.08
16:20 71 71 56 South 13.6 15.7 - - - - - - 30.10 -
16:50 71 71 58 South 13.6 15.7 10 3.94 exactly 3.9 6 3.28 2.46 - 4.10 10 3.28 2.46 - 4.10 30.09 -0.05
17:20 72 71 62 South 13.6 15.7 - - - - - - 30.09 -
18:20 71 71 68 South 11.7 13.4 - - - - - - 30.10 -
19:20 72 72 68 South 11.7 13.4 - - - - - - 30.12 -
19:50 72 72 70 South 11.7 13.4 11 3.28 exactly 3.3 5 1.64 0.82 - 2.46 11 3.28 2.46 - 4.10 30.11 +0.02
20:20 71 72 76 South 11.7 13.4 - - - - - - 30.12 -
20:50 71 72 74 SSW 9.7 11.2 11 2.95 exactly 3.0 4 1.64 0.82 - 2.46 11 3.28 2.46 - 4.10 30.12 +0.03
21:20 72 72 65 SW 7.8 8.9 - - - - - - 30.13 -
21:50 72 72 55 WSW 7.8 8.9 11 2.62 exactly 2.6 3 1.64 0.82 - 2.46 11 1.64 0.82 - 2.46 30.13 +0.02
22:20 71 72 53 West 9.7 11.2 - - - - - - 30.12 -
22:50 71 72 54 West 9.7 11.2 6 2.62 exactly 2.6 5 1.64 0.82 - 2.46 6 1.64 0.82 - 2.46 30.12 -
23:20 71 72 56 West 9.7 11.2 - - - - - - 30.12 -
23:50 70 72 57 West 11.7 13.4 11 2.62 exactly 2.6 5 1.64 0.82 - 2.46 11 1.64 0.82 - 2.46 30.11 -0.01
00:20 70 72 57 WNW 9.7 11.2 - - - - - - 30.10 -
00:50 69 72 60 WNW 11.7 13.4 11 2.30 exactly 2.3 4 1.64 0.82 - 2.46 11 1.64 0.82 - 2.46 30.09 -0.04
01:20 69 72 59 WNW 13.6 15.7 - - - - - - 30.10 -
01:50 69 72 61 WNW 11.7 13.4 9 2.30 exactly 2.3 5 1.64 0.82 - 2.46 9 1.64 0.82 - 2.46 30.10 -0.01
02:20 69 72 62 WNW 11.7 13.4 - - - - - - 30.09 -
02:50 69 72 64 WNW 11.7 13.4 10 2.30 exactly 2.3 3 1.64 0.82 - 2.46 10 1.64 0.82 - 2.46 30.09 -0.02
03:20 69 72 64 WNW 13.6 15.7 - - - - - - 30.09 -
03:50 69 72 66 WNW 11.7 13.4 10 2.62 exactly 2.6 3 1.64 0.82 - 2.46 10 1.64 0.82 - 2.46 30.09 -

Detailed Wave Spectra

Time Water Depth Wave Height Spectral Peak Period Average Wave Period Sampling Interval Wave Record
20:00 135 ft 3.81 ft 11.4 sec 5.6 sec 0.6 sec 2400 sec
21:00 135 ft 3.81 ft 10.8 sec 4.9 sec 0.6 sec 2400 sec
22:00 135 ft 3.81 ft 11.4 sec 5.1 sec 0.6 sec 2400 sec
23:00 135 ft 3.84 ft 9.1 sec 5.0 sec 0.6 sec 2400 sec
00:00 135 ft 3.90 ft 12.1 sec 4.8 sec 0.6 sec 2400 sec
01:00 135 ft 4.10 ft 12.1 sec 4.6 sec 0.6 sec 2400 sec
02:00 135 ft 4.00 ft 10.8 sec 4.4 sec 0.6 sec 2400 sec
03:00 135 ft 4.30 ft 11.4 sec 4.7 sec 0.6 sec 2400 sec
04:00 135 ft 4.07 ft 12.1 sec 5.1 sec 0.6 sec 2400 sec
06:00 135 ft 3.87 ft 10.8 sec 5.1 sec 0.6 sec 2400 sec
07:00 135 ft 4.30 ft 10.8 sec 5.4 sec 0.6 sec 2400 sec
08:00 135 ft 4.36 ft 10.0 sec 5.1 sec 0.6 sec 2400 sec
09:00 135 ft 4.53 ft 10.8 sec 4.7 sec 0.6 sec 2400 sec
11:00 135 ft 5.12 ft 11.4 sec 4.8 sec 0.6 sec 2400 sec
12:00 135 ft 4.76 ft 10.8 sec 4.8 sec 0.6 sec 2400 sec
14:00 135 ft 4.33 ft 10.8 sec 5.1 sec 0.6 sec 2400 sec
15:00 135 ft 4.30 ft 10.8 sec 5.2 sec 0.6 sec 2400 sec
16:00 135 ft 4.23 ft 10.8 sec 5.2 sec 0.6 sec 2400 sec
17:00 135 ft 3.90 ft 10.0 sec 5.1 sec 0.6 sec 2400 sec
18:00 135 ft 3.94 ft 10.8 sec 5.1 sec 0.6 sec 2400 sec
20:00 135 ft 3.41 ft 10.8 sec 5.4 sec 0.6 sec 2400 sec
21:00 135 ft 2.92 ft 10.8 sec 5.1 sec 0.6 sec 2400 sec
00:00 135 ft 2.53 ft 11.4 sec 4.8 sec 0.6 sec 2400 sec
01:00 135 ft 2.46 ft 11.4 sec 4.4 sec 0.6 sec 2400 sec
02:00 135 ft 2.43 ft 9.1 sec 4.3 sec 0.6 sec 2400 sec
03:00 135 ft 2.46 ft 10.0 sec 4.4 sec 0.6 sec 2400 sec